createdAt,value
2018-07-15T00:01:41.427Z,84.5
2018-07-15T00:06:41.413Z,84.8
2018-07-15T00:11:41.425Z,84.8
2018-07-15T00:16:41.425Z,84.7
2018-07-15T00:21:41.425Z,84.7
2018-07-15T00:26:53.557Z,83.7
2018-07-15T00:31:53.495Z,84.2
2018-07-15T00:36:53.422Z,84
2018-07-15T00:41:53.468Z,83.8
2018-07-15T00:46:53.273Z,85
2018-07-15T00:51:53.283Z,85.5
2018-07-15T00:56:53.274Z,86.3
2018-07-15T01:01:53.291Z,86.4
2018-07-15T01:06:53.297Z,84
2018-07-15T01:12:05.420Z,84.3
2018-07-15T01:17:05.143Z,85.3
2018-07-15T01:22:05.134Z,86.1
2018-07-15T01:27:05.189Z,85
2018-07-15T01:32:05.173Z,84.5
2018-07-15T01:37:05.169Z,85.3
2018-07-15T01:42:05.161Z,85.3
2018-07-15T01:47:05.168Z,85.4
2018-07-15T01:52:05.299Z,85.9
2018-07-15T01:57:17.535Z,85.2
2018-07-15T02:02:17.244Z,84.7
2018-07-15T02:07:17.459Z,86.3
2018-07-15T02:12:17.265Z,86.2
2018-07-15T02:17:17.482Z,87
2018-07-15T02:22:17.408Z,85.7
2018-07-15T02:27:17.419Z,86
2018-07-15T02:32:17.276Z,84.7
2018-07-15T02:37:17.281Z,86
2018-07-15T02:42:30.238Z,87.1
2018-07-15T02:47:30.162Z,87.1
2018-07-15T02:52:29.971Z,87.6
2018-07-15T02:57:29.961Z,88.2
2018-07-15T03:02:30.191Z,87.5
2018-07-15T03:07:29.959Z,87.8
2018-07-15T03:12:29.992Z,88.3
2018-07-15T03:17:32.243Z,88.6
2018-07-15T03:22:32.257Z,87.6
2018-07-15T03:27:42.581Z,86.8
2018-07-15T03:32:42.263Z,86.3
2018-07-15T03:37:42.372Z,86.5
2018-07-15T03:42:42.247Z,86.8
2018-07-15T03:47:42.620Z,88.5
2018-07-15T03:52:42.488Z,87.5
2018-07-15T03:57:42.276Z,87.1
2018-07-15T04:02:42.804Z,86.8
2018-07-15T04:07:42.541Z,87.4
2018-07-15T04:12:54.692Z,88.3
2018-07-15T04:17:54.371Z,87.6
2018-07-15T04:22:54.560Z,87
2018-07-15T04:27:54.431Z,85.5
2018-07-15T04:32:54.422Z,84.6
2018-07-15T04:37:54.570Z,85.3
2018-07-15T04:42:54.448Z,83.9
2018-07-15T04:47:56.393Z,83.5
2018-07-15T04:52:56.139Z,83.9
2018-07-15T04:58:06.637Z,81.7
2018-07-15T05:03:06.480Z,81.7
2018-07-15T05:08:06.337Z,80.7
2018-07-15T05:13:06.471Z,80.9
2018-07-15T05:18:06.360Z,79.1
2018-07-15T05:23:06.325Z,79.7
2018-07-15T05:28:06.328Z,79.1
2018-07-15T05:33:06.340Z,78
2018-07-15T05:38:06.339Z,76.3
2018-07-15T05:43:06.367Z,76.8
2018-07-15T05:48:06.512Z,77.7
2018-07-15T05:53:06.532Z,75.2
2018-07-15T05:58:06.526Z,74.6
2018-07-15T06:03:06.408Z,74.9
2018-07-15T06:08:18.428Z,71.2
2018-07-15T06:13:18.106Z,70.3
2018-07-15T06:18:18.402Z,67.8
2018-07-15T06:23:18.328Z,68.2
2018-07-15T06:28:18.188Z,69
2018-07-15T06:33:18.441Z,68
2018-07-15T06:38:18.165Z,67.5
2018-07-15T06:43:18.573Z,66.1
2018-07-15T06:48:18.231Z,67
2018-07-15T06:53:32.018Z,67.1
2018-07-15T06:58:31.716Z,67.1
2018-07-15T07:03:31.710Z,63.4
2018-07-15T07:08:31.711Z,63.5
2018-07-15T07:13:31.695Z,65.7
2018-07-15T07:18:31.710Z,62.8
2018-07-15T07:23:31.701Z,61.5
2018-07-15T07:28:31.779Z,62.3
2018-07-15T07:33:31.930Z,60.5
2018-07-15T07:38:44.684Z,59.1
2018-07-15T07:43:44.322Z,60.9
2018-07-15T07:48:44.280Z,60.5
2018-07-15T07:53:44.336Z,61.1
2018-07-15T07:58:44.302Z,62.3
2018-07-15T08:03:44.297Z,60.8
2018-07-15T08:08:44.443Z,61.3
2018-07-15T08:13:45.409Z,61.6
2018-07-15T08:18:45.114Z,60.6
2018-07-15T08:23:58.665Z,59.6
2018-07-15T08:28:56.854Z,60.2
2018-07-15T08:33:56.948Z,58
2018-07-15T08:38:57.024Z,58.4
2018-07-15T08:43:57.070Z,58.5
2018-07-15T08:48:56.927Z,57.7
2018-07-15T08:53:57.150Z,57.9
2018-07-15T08:58:59.061Z,57.3
2018-07-15T09:03:58.788Z,55.6
2018-07-15T09:09:12.849Z,57.2
2018-07-15T09:14:11.057Z,55.2
2018-07-15T09:19:11.250Z,54.6
2018-07-15T09:24:11.106Z,54.9
2018-07-15T09:29:11.230Z,53.8
2018-07-15T09:34:11.108Z,53.5
2018-07-15T09:39:11.270Z,52.8
2018-07-15T09:44:11.428Z,52.1
2018-07-15T09:49:11.136Z,49.3
2018-07-15T09:54:23.890Z,47.4
2018-07-15T09:59:23.603Z,50.2
2018-07-15T10:04:23.626Z,50.5
2018-07-15T10:09:23.746Z,48.2
2018-07-15T10:14:23.682Z,47.7
2018-07-15T10:19:24.070Z,45.9
2018-07-15T10:24:23.777Z,45.7
2018-07-15T10:29:23.796Z,48.1
2018-07-15T10:34:23.778Z,47.2
2018-07-15T10:39:23.788Z,44.6
2018-07-15T10:44:24.011Z,42.3
2018-07-15T10:49:23.894Z,43.2
2018-07-15T10:54:23.936Z,41.5
2018-07-15T10:59:23.805Z,40.8
2018-07-15T11:04:35.627Z,42.6
2018-07-15T11:09:35.546Z,41.9
2018-07-15T11:14:35.577Z,41.4
2018-07-15T11:19:35.358Z,38.8
2018-07-15T11:24:35.338Z,37.9
2018-07-15T11:29:35.350Z,38.9
2018-07-15T11:34:35.295Z,38.8
2018-07-15T11:39:35.411Z,39.3
2018-07-15T11:44:35.564Z,37.5
2018-07-15T11:49:47.348Z,37
2018-07-15T11:54:47.162Z,37.4
2018-07-15T11:59:47.084Z,36.3
2018-07-15T12:04:47.045Z,36.7
2018-07-15T12:09:47.179Z,37.3
2018-07-15T12:14:47.246Z,35.7
2018-07-15T12:19:47.080Z,34.7
2018-07-15T12:24:48.455Z,34.6
2018-07-15T12:29:48.532Z,35
2018-07-15T12:35:00.263Z,35.1
2018-07-15T12:40:00.002Z,34.6
2018-07-15T12:45:00.330Z,32.8
2018-07-15T12:50:00.040Z,36.3
2018-07-15T12:55:00.019Z,35.3
2018-07-15T13:00:00.124Z,36.5
2018-07-15T13:05:00.195Z,37
2018-07-15T13:10:00.731Z,36.8
2018-07-15T13:15:00.658Z,35.9
2018-07-15T13:20:13.230Z,35
2018-07-15T13:25:13.994Z,39.9
2018-07-15T13:30:14.458Z,39.3
2018-07-15T13:35:14.472Z,38.7
2018-07-15T13:40:14.471Z,40.6
2018-07-15T13:45:14.509Z,39.3
2018-07-15T13:50:14.479Z,38.1
2018-07-15T13:55:14.495Z,39.2
2018-07-15T14:00:14.481Z,39.2
2018-07-15T14:05:25.789Z,39
2018-07-15T14:10:25.514Z,39.2
2018-07-15T14:15:25.539Z,38.9
2018-07-15T14:20:25.795Z,39.7
2018-07-15T14:25:25.474Z,40
2018-07-15T14:30:25.544Z,39.9
2018-07-15T14:35:25.689Z,40.8
2018-07-15T14:40:29.233Z,40.8
2018-07-15T14:45:29.273Z,39.7
2018-07-15T14:50:39.368Z,39.2
2018-07-15T14:55:39.230Z,40.2
2018-07-15T15:00:39.073Z,39.1
2018-07-15T15:05:39.308Z,37.2
2018-07-15T15:10:39.137Z,38.7
2018-07-15T15:15:39.148Z,39.6
2018-07-15T15:20:39.135Z,41.7
2018-07-15T15:25:42.369Z,41.1
2018-07-15T15:30:41.921Z,41.5
2018-07-15T15:35:54.802Z,41.2
2018-07-15T15:40:54.519Z,41.3
2018-07-15T15:45:54.649Z,42.1
2018-07-15T15:50:54.487Z,44.6
2018-07-15T15:55:54.499Z,44.8
2018-07-15T16:00:54.741Z,44.8
2018-07-15T16:05:54.515Z,45.7
2018-07-15T16:10:55.021Z,46.3
2018-07-15T16:15:54.725Z,46.1
2018-07-15T16:21:07.633Z,46.3
2018-07-15T16:26:07.465Z,47.4
2018-07-15T16:31:07.546Z,47.5
2018-07-15T16:36:07.378Z,47.2
2018-07-15T16:41:07.378Z,48.4
2018-07-15T16:46:07.380Z,47.9
2018-07-15T16:51:07.398Z,49.3
2018-07-15T16:56:08.844Z,50.4
2018-07-15T17:01:08.527Z,49.7
2018-07-15T17:06:19.810Z,52.6
2018-07-15T17:11:19.512Z,51.9
2018-07-15T17:16:19.497Z,51.9
2018-07-15T17:21:19.535Z,51.5
2018-07-15T17:26:19.526Z,51.4
2018-07-15T17:31:19.477Z,51.4
2018-07-15T17:36:19.674Z,52.7
2018-07-15T17:41:21.358Z,54.2
2018-07-15T17:46:21.255Z,52.5
2018-07-15T17:51:35.244Z,52.5
2018-07-15T17:56:35.039Z,54.4
2018-07-15T18:01:35.133Z,55.5
2018-07-15T18:06:35.121Z,56.2
2018-07-15T18:11:34.979Z,56.9
2018-07-15T18:16:34.964Z,56.9
2018-07-15T18:21:34.954Z,57.1
2018-07-15T18:26:35.402Z,56.2
2018-07-15T18:31:35.295Z,55.8
2018-07-15T18:36:47.710Z,56.7
2018-07-15T18:41:47.466Z,56.5
2018-07-15T18:46:47.450Z,56.5
2018-07-15T18:51:47.462Z,56.1
2018-07-15T18:56:47.661Z,57.5
2018-07-15T19:01:47.467Z,57.9
2018-07-15T19:06:47.604Z,57.3
2018-07-15T19:11:48.111Z,57.4
2018-07-15T19:16:47.865Z,58.7
2018-07-15T19:22:01.032Z,60.2
2018-07-15T19:27:00.786Z,62
2018-07-15T19:32:00.887Z,62
2018-07-15T19:37:00.912Z,62.5
2018-07-15T19:42:00.768Z,63.1
2018-07-15T19:47:00.740Z,63.9
2018-07-15T19:52:00.882Z,64.4
2018-07-15T19:57:01.560Z,64.7
2018-07-15T20:02:01.266Z,65.5
2018-07-15T20:07:13.985Z,65.6
2018-07-15T20:12:13.709Z,66.1
2018-07-15T20:17:13.770Z,65.4
2018-07-15T20:22:13.982Z,65.5
2018-07-15T20:27:13.837Z,66
2018-07-15T20:32:13.748Z,68.3
2018-07-15T20:37:13.731Z,66.4
2018-07-15T20:42:13.773Z,68.4
2018-07-15T20:47:13.886Z,69.9
2018-07-15T20:52:13.975Z,70.1
2018-07-15T20:57:13.954Z,69.6
2018-07-15T21:02:13.889Z,68.4
2018-07-15T21:07:14.083Z,70.3
2018-07-15T21:12:14.057Z,70.2
2018-07-15T21:17:27.153Z,71.7
2018-07-15T21:22:26.873Z,70.6
2018-07-15T21:27:27.067Z,71.3
2018-07-15T21:32:26.869Z,70.2
2018-07-15T21:37:27.022Z,72.9
2018-07-15T21:42:26.903Z,71.3
2018-07-15T21:47:26.987Z,73.3
2018-07-15T21:52:27.563Z,73
2018-07-15T21:57:27.278Z,73.4
2018-07-15T22:02:40.303Z,73.7
2018-07-15T22:07:40.240Z,73.1
2018-07-15T22:12:40.276Z,73.2
2018-07-15T22:17:40.072Z,73.1
2018-07-15T22:22:40.270Z,74
2018-07-15T22:27:40.218Z,73.6
2018-07-15T22:32:40.231Z,75.2
2018-07-15T22:37:40.159Z,74.9
2018-07-15T22:42:40.367Z,74.5
2018-07-15T22:47:40.416Z,76.3
2018-07-15T22:52:40.205Z,75.7
2018-07-15T22:57:40.366Z,75.7
2018-07-15T23:02:41.351Z,75.8
2018-07-15T23:07:41.250Z,76.9
2018-07-15T23:12:53.936Z,77.2
2018-07-15T23:17:53.661Z,76.6
2018-07-15T23:22:53.648Z,77.9
2018-07-15T23:27:53.792Z,78
2018-07-15T23:32:53.632Z,77.6
2018-07-15T23:37:53.753Z,77.2
2018-07-15T23:42:53.624Z,77.8
2018-07-15T23:47:54.965Z,77.4
2018-07-15T23:52:54.693Z,79.2
2018-07-15T23:58:06.962Z,78.2
